Time;durP1;ratioP1;P1;durP2;ratioP2;P2;SDS_P1;SDS_P2;PMS_P1;PMS_P2;Temp;Humidity;BMP_temperature;BMP_pressure;BME280_temperature;BME280_humidity;BME280_pressure;Samples;Min_cycle;Max_cycle;Signal;HPM_P1;HPM_P2
2021/08/22 00:02:03;;;;;;;2.93;2.73;;;18.60;99.90;;;;;;5113439;28;20534;-79
2021/08/22 00:04:29;;;;;;;2.53;2.33;;;18.50;99.90;;;;;;5113343;28;20545;-79
2021/08/22 00:06:57;;;;;;;2.73;2.53;;;18.40;99.90;;;;;;5113045;28;20512;-79
2021/08/22 00:09:24;;;;;;;2.80;2.60;;;18.40;99.90;;;;;;5113396;28;20872;-79
2021/08/22 00:11:51;;;;;;;2.87;2.67;;;18.40;99.90;;;;;;5113354;28;20477;-79
2021/08/22 00:14:18;;;;;;;3.47;3.17;;;18.30;99.90;;;;;;5114052;28;20540;-79
2021/08/22 00:16:45;;;;;;;5.33;3.10;;;18.20;99.90;;;;;;5133730;28;20960;-79
2021/08/22 00:19:12;;;;;;;2.80;2.60;;;18.20;99.90;;;;;;5134023;28;20480;-78
2021/08/22 00:21:38;;;;;;;2.73;2.57;;;18.20;99.90;;;;;;5133640;28;20567;-79
2021/08/22 00:24:06;;;;;;;3.70;3.40;;;18.10;99.90;;;;;;5133739;28;21030;-78
2021/08/22 00:26:33;;;;;;;3.13;2.80;;;18.10;99.90;;;;;;5133606;28;20544;-79
2021/08/22 00:28:59;;;;;;;2.93;2.73;;;18.00;99.90;;;;;;5133530;28;20540;-79
2021/08/22 00:31:26;;;;;;;3.47;3.27;;;18.00;99.90;;;;;;5133744;28;20543;-79
2021/08/22 00:33:52;;;;;;;3.50;2.73;;;18.00;99.90;;;;;;5133610;28;20548;-79
2021/08/22 00:36:19;;;;;;;3.10;2.80;;;18.00;99.90;;;;;;5133574;28;20884;-78
2021/08/22 00:38:47;;;;;;;3.60;3.30;;;17.90;99.90;;;;;;5133564;28;20531;-79
2021/08/22 00:41:15;;;;;;;5.17;4.40;;;17.90;99.90;;;;;;5133364;28;20986;-78
2021/08/22 00:43:45;;;;;;;5.13;4.77;;;17.80;99.90;;;;;;5133859;28;20532;-78
2021/08/22 00:46:11;;;;;;;4.00;3.70;;;17.80;99.90;;;;;;5133574;28;20544;-79
2021/08/22 00:48:39;;;;;;;4.03;3.10;;;17.80;99.90;;;;;;5133410;28;20874;-79
2021/08/22 00:51:06;;;;;;;3.13;2.93;;;17.80;99.90;;;;;;5133447;28;20452;-79
2021/08/22 00:53:33;;;;;;;2.93;2.67;;;17.70;99.90;;;;;;5136509;27;20447;-79
2021/08/22 00:56:03;;;;;;;3.17;2.83;;;17.70;99.90;;;;;;5137142;27;20527;-79
2021/08/22 00:58:32;;;;;;;5.77;3.03;;;17.70;99.90;;;;;;5137360;27;20505;-78
2021/08/22 01:00:59;;;;;;;3.90;2.90;;;17.70;99.90;;;;;;5137271;27;20543;-79
2021/08/22 01:03:34;;;;;;;3.43;3.23;;;17.70;99.90;;;;;;5137104;27;20535;-78
2021/08/22 01:06:20;;;;;;;3.53;2.67;;;17.70;99.90;;;;;;5136326;27;20483;-79
2021/08/22 01:08:55;;;;;;;3.47;3.17;;;17.70;99.90;;;;;;5137034;27;20479;-79
2021/08/22 01:11:25;;;;;;;8.80;7.90;;;17.80;99.90;;;;;;5134642;27;20530;-79
2021/08/22 01:13:57;;;;;;;3.93;3.63;;;17.70;99.90;;;;;;5136760;27;20529;-79
2021/08/22 01:16:27;;;;;;;7.13;3.53;;;17.70;99.90;;;;;;5136539;27;20472;-79
2021/08/22 01:18:58;;;;;;;4.13;3.83;;;17.70;99.90;;;;;;5136800;27;20543;-79
2021/08/22 01:21:26;;;;;;;2.90;2.70;;;17.70;99.90;;;;;;5136822;27;20571;-79
2021/08/22 01:23:54;;;;;;;3.00;2.80;;;17.70;99.90;;;;;;5136742;27;20536;-79
2021/08/22 01:26:25;;;;;;;3.37;3.00;;;17.70;99.90;;;;;;5136694;27;20539;-79
2021/08/22 01:28:54;;;;;;;4.73;3.40;;;17.70;99.90;;;;;;5136653;27;20459;-79
2021/08/22 01:31:27;;;;;;;3.73;3.53;;;17.60;99.90;;;;;;5136645;27;20535;-78
2021/08/22 01:33:57;;;;;;;3.77;3.47;;;17.50;99.90;;;;;;5136656;27;20536;-79
2021/08/22 01:36:24;;;;;;;3.17;2.87;;;17.50;99.90;;;;;;5136445;27;20535;-79
2021/08/22 01:38:52;;;;;;;3.43;3.13;;;17.50;99.90;;;;;;5136501;27;20472;-79
2021/08/22 01:41:22;;;;;;;6.07;5.43;;;17.50;99.90;;;;;;5136073;27;20993;-78
2021/08/22 01:43:49;;;;;;;3.13;2.93;;;17.40;99.90;;;;;;5136615;27;20874;-79
2021/08/22 01:46:16;;;;;;;3.13;2.93;;;17.40;99.90;;;;;;5136460;27;20979;-79
2021/08/22 01:48:43;;;;;;;3.00;2.80;;;17.40;99.90;;;;;;5136266;27;20537;-78
2021/08/22 01:51:11;;;;;;;3.00;2.80;;;17.40;99.90;;;;;;5136277;27;20566;-79
2021/08/22 01:53:39;;;;;;;3.67;3.37;;;17.40;99.90;;;;;;5136213;27;20445;-79
2021/08/22 01:56:06;;;;;;;3.37;3.10;;;17.40;99.90;;;;;;5135914;27;20539;-79
2021/08/22 01:58:32;;;;;;;5.23;3.43;;;17.40;99.90;;;;;;5136292;27;20540;-78
2021/08/22 02:00:59;;;;;;;5.60;3.47;;;17.40;99.90;;;;;;5135978;27;20540;-79
2021/08/22 02:03:33;;;;;;;3.70;3.30;;;17.40;99.90;;;;;;5135176;27;20983;-79
2021/08/22 02:06:09;;;;;;;3.47;3.17;;;17.40;99.90;;;;;;5135464;27;20543;-79
2021/08/22 02:08:38;;;;;;;3.40;3.10;;;17.40;99.90;;;;;;5135746;27;20449;-79
2021/08/22 02:11:11;;;;;;;4.23;3.03;;;17.40;99.90;;;;;;5135726;27;20860;-79
2021/08/22 02:13:40;;;;;;;3.63;3.33;;;17.40;99.90;;;;;;5135746;27;20544;-79
2021/08/22 02:16:10;;;;;;;3.87;3.53;;;17.30;99.90;;;;;;5135523;27;20895;-79
2021/08/22 02:18:37;;;;;;;4.13;3.73;;;17.30;99.90;;;;;;5135717;27;20810;-79
2021/08/22 02:21:05;;;;;;;6.87;6.20;;;17.20;99.90;;;;;;5135363;27;20472;-79
2021/08/22 02:23:32;;;;;;;4.30;4.00;;;17.30;99.90;;;;;;5135758;27;20563;-79
2021/08/22 02:26:00;;;;;;;3.70;3.40;;;17.20;99.90;;;;;;5135677;27;20536;-79
2021/08/22 02:28:27;;;;;;;4.00;3.67;;;17.20;99.90;;;;;;5135371;27;20444;-79
2021/08/22 02:30:53;;;;;;;3.33;3.13;;;17.30;99.90;;;;;;5135729;27;20935;-79
2021/08/22 02:33:20;;;;;;;3.60;3.30;;;17.30;99.90;;;;;;5135258;27;20532;-79
2021/08/22 02:35:46;;;;;;;5.33;3.40;;;17.30;99.90;;;;;;5135453;27;21002;-79
2021/08/22 02:38:13;;;;;;;4.57;3.10;;;17.30;99.90;;;;;;5135384;27;20532;-79
2021/08/22 02:40:39;;;;;;;3.87;3.57;;;17.30;99.90;;;;;;5135250;27;20527;-79
2021/08/22 02:43:07;;;;;;;3.77;3.47;;;17.40;99.90;;;;;;5134970;27;21067;-79
2021/08/22 02:45:34;;;;;;;3.50;3.20;;;17.40;99.90;;;;;;5134979;27;20452;-79
2021/08/22 02:48:01;;;;;;;3.57;3.27;;;17.50;99.90;;;;;;5135014;27;20452;-79
2021/08/22 02:50:29;;;;;;;5.80;5.30;;;17.50;99.90;;;;;;5134775;27;20449;-79
2021/08/22 02:52:55;;;;;;;3.27;3.07;;;17.50;99.90;;;;;;5134737;27;20445;-79
2021/08/22 02:55:22;;;;;;;3.97;3.63;;;17.50;99.90;;;;;;5134876;27;21029;-79
2021/08/22 02:57:49;;;;;;;3.23;2.90;;;17.50;99.90;;;;;;5134760;27;20541;-78
2021/08/22 03:00:17;;;;;;;3.63;3.23;;;17.50;99.90;;;;;;5134909;27;20539;-79
2021/08/22 03:02:44;;;;;;;3.97;3.67;;;17.50;99.90;;;;;;5134440;27;20563;-79
2021/08/22 03:05:10;;;;;;;3.67;3.07;;;17.50;99.90;;;;;;5134906;27;20894;-79
2021/08/22 03:07:37;;;;;;;3.30;2.93;;;17.50;99.90;;;;;;5134611;27;20559;-79
2021/08/22 03:10:04;;;;;;;3.80;3.53;;;17.50;99.90;;;;;;5134795;27;20925;-79
2021/08/22 03:12:31;;;;;;;3.90;3.57;;;17.50;99.90;;;;;;5134506;27;20531;-79
2021/08/22 03:14:57;;;;;;;3.70;3.40;;;17.50;99.90;;;;;;5128460;27;20441;-79
2021/08/22 03:17:25;;;;;;;3.60;3.40;;;17.50;99.90;;;;;;5113798;28;20541;-79
2021/08/22 03:19:53;;;;;;;4.10;3.60;;;17.50;99.90;;;;;;5114044;28;20506;-79
2021/08/22 03:22:20;;;;;;;3.30;3.10;;;17.40;99.90;;;;;;5113885;28;20480;-79
2021/08/22 03:24:47;;;;;;;3.60;3.40;;;17.50;99.90;;;;;;5113927;28;20453;-79
2021/08/22 03:27:13;;;;;;;3.83;3.47;;;17.50;99.90;;;;;;5113629;28;20666;-79
2021/08/22 03:29:40;;;;;;;4.17;3.40;;;17.50;99.90;;;;;;5113784;28;20999;-79
2021/08/22 03:32:08;;;;;;;3.20;3.00;;;17.50;99.90;;;;;;5113568;28;20552;-79
2021/08/22 03:34:35;;;;;;;3.97;3.70;;;17.50;99.90;;;;;;5113849;28;20450;-79
2021/08/22 03:37:02;;;;;;;3.57;3.27;;;17.40;99.90;;;;;;5113564;28;20544;-78
2021/08/22 03:39:29;;;;;;;3.33;3.13;;;17.40;99.90;;;;;;5113676;28;20541;-78
2021/08/22 03:41:55;;;;;;;3.17;2.97;;;17.40;99.90;;;;;;5113548;28;20530;-79
2021/08/22 03:44:22;;;;;;;3.60;3.40;;;17.30;99.90;;;;;;5113373;28;20449;-79
2021/08/22 03:46:49;;;;;;;3.00;2.80;;;17.30;99.90;;;;;;5113664;28;20451;-78
2021/08/22 03:49:16;;;;;;;3.50;2.97;;;17.30;99.90;;;;;;5113599;28;20879;-79
2021/08/22 03:51:44;;;;;;;3.40;3.20;;;17.20;99.90;;;;;;5113566;28;20529;-79
2021/08/22 03:54:10;;;;;;;3.40;3.20;;;17.20;99.90;;;;;;5113388;28;20449;-79
2021/08/22 03:56:37;;;;;;;3.57;3.27;;;17.20;99.90;;;;;;5113454;28;20477;-79
2021/08/22 03:59:07;;;;;;;3.13;2.93;;;17.20;99.90;;;;;;5113275;28;20480;-79
2021/08/22 04:01:33;;;;;;;4.13;3.37;;;17.20;99.90;;;;;;5113999;28;20445;-78
2021/08/22 04:04:01;;;;;;;3.73;3.10;;;17.10;99.90;;;;;;5113157;28;20994;-79
2021/08/22 04:06:28;;;;;;;3.40;3.10;;;17.10;99.90;;;;;;5113379;28;20478;-78
2021/08/22 04:08:55;;;;;;;3.67;3.40;;;17.10;99.90;;;;;;5113229;28;20449;-78
2021/08/22 04:11:22;;;;;;;4.10;3.80;;;17.10;99.90;;;;;;5113087;28;20499;-78
2021/08/22 04:13:48;;;;;;;3.63;3.33;;;17.10;99.90;;;;;;5113283;28;20553;-79
2021/08/22 04:16:15;;;;;;;4.13;3.20;;;17.10;99.90;;;;;;5130186;28;20447;-79
2021/08/22 04:18:41;;;;;;;3.90;3.00;;;17.10;99.90;;;;;;5133736;28;20527;-78
2021/08/22 04:21:08;;;;;;;3.50;3.20;;;17.20;99.90;;;;;;5133748;28;20507;-79
2021/08/22 04:23:34;;;;;;;3.30;3.00;;;17.20;99.90;;;;;;5133561;28;20913;-78
2021/08/22 04:26:02;;;;;;;3.90;3.60;;;17.20;99.90;;;;;;5133753;27;20456;-78
2021/08/22 04:28:29;;;;;;;4.27;3.90;;;17.20;99.90;;;;;;5137061;27;20889;-79
2021/08/22 04:30:55;;;;;;;4.20;3.40;;;17.30;99.90;;;;;;5137766;27;20531;-79
2021/08/22 04:33:22;;;;;;;4.03;3.60;;;17.30;99.90;;;;;;5137578;27;20535;-79
2021/08/22 04:35:48;;;;;;;3.80;3.50;;;17.40;99.90;;;;;;5137478;27;20528;-79
2021/08/22 04:38:15;;;;;;;3.00;2.90;;;17.40;99.90;;;;;;5137431;27;20883;-79
2021/08/22 04:40:41;;;;;;;6.43;3.03;;;17.50;99.90;;;;;;5137294;27;20536;-79
2021/08/22 04:43:09;;;;;;;3.30;2.87;;;17.50;99.90;;;;;;5137414;27;20571;-79
2021/08/22 04:45:36;;;;;;;2.57;2.40;;;17.50;99.90;;;;;;5137478;27;20448;-79
2021/08/22 04:48:02;;;;;;;3.30;3.00;;;17.60;99.90;;;;;;5137367;27;20581;-78
2021/08/22 04:50:29;;;;;;;3.70;2.83;;;17.60;99.90;;;;;;5137302;27;20535;-79
2021/08/22 04:52:55;;;;;;;2.97;2.77;;;17.70;99.90;;;;;;5137117;27;20531;-79
2021/08/22 04:55:22;;;;;;;5.57;2.87;;;17.70;99.90;;;;;;5137031;27;20477;-79
2021/08/22 04:57:49;;;;;;;4.23;3.00;;;17.70;99.90;;;;;;5137225;27;20445;-79
2021/08/22 05:00:17;;;;;;;5.73;3.40;;;17.80;99.90;;;;;;5137213;27;20536;-79
2021/08/22 05:02:44;;;;;;;2.73;2.53;;;17.80;99.90;;;;;;5136978;27;20563;-79
2021/08/22 05:05:10;;;;;;;4.63;3.60;;;17.90;99.90;;;;;;5136927;27;20849;-79
2021/08/22 05:07:37;;;;;;;3.43;3.13;;;17.90;99.90;;;;;;5136648;27;20504;-78
2021/08/22 05:10:04;;;;;;;2.83;2.70;;;17.90;99.90;;;;;;5136982;27;20555;-79
2021/08/22 05:12:30;;;;;;;2.90;2.60;;;17.90;99.90;;;;;;5136963;27;20540;-79
2021/08/22 05:14:57;;;;;;;2.70;2.50;;;17.90;99.90;;;;;;5130801;27;20529;-79
2021/08/22 05:17:25;;;;;;;7.20;2.63;;;17.90;99.90;;;;;;5116190;28;20541;-79
2021/08/22 05:19:51;;;;;;;3.20;2.90;;;18.00;99.90;;;;;;5116049;28;20544;-79
2021/08/22 05:22:18;;;;;;;2.40;2.20;;;18.00;99.90;;;;;;5115915;28;20449;-79
2021/08/22 05:24:44;;;;;;;3.03;2.30;;;18.00;99.90;;;;;;5116336;28;20540;-79
2021/08/22 05:27:11;;;;;;;5.10;2.50;;;18.00;99.90;;;;;;5116103;28;20556;-79
2021/08/22 05:29:37;;;;;;;2.70;2.17;;;18.10;99.90;;;;;;5115980;28;20853;-79
2021/08/22 05:32:06;;;;;;;2.43;2.33;;;18.10;99.90;;;;;;5115830;28;20541;-79
2021/08/22 05:34:34;;;;;;;2.70;2.50;;;18.20;99.90;;;;;;5115759;28;20453;-79
2021/08/22 05:37:01;;;;;;;2.20;2.00;;;18.30;99.90;;;;;;5115445;28;20540;-79
2021/08/22 05:39:27;;;;;;;2.10;1.90;;;18.40;99.90;;;;;;5115766;28;20540;-79
2021/08/22 05:41:54;;;;;;;2.30;2.10;;;18.60;99.90;;;;;;5115752;28;20540;-79
2021/08/22 05:44:20;;;;;;;2.03;1.93;;;18.70;99.90;;;;;;5115513;28;20484;-79
2021/08/22 05:46:47;;;;;;;4.97;2.73;;;18.90;99.90;;;;;;5115669;28;20533;-79
2021/08/22 05:49:13;;;;;;;2.57;2.37;;;19.10;99.90;;;;;;5115360;28;21007;-78
2021/08/22 05:51:43;;;;;;;2.30;2.13;;;19.40;99.90;;;;;;5115639;28;20836;-79
2021/08/22 05:54:09;;;;;;;2.17;2.03;;;19.50;99.90;;;;;;5115534;28;20506;-79
2021/08/22 05:56:36;;;;;;;2.37;2.27;;;19.60;99.90;;;;;;5115336;28;21022;-79
2021/08/22 05:59:02;;;;;;;2.20;2.10;;;19.60;99.90;;;;;;5115387;28;20446;-79
2021/08/22 06:01:29;;;;;;;1.97;1.87;;;19.70;99.90;;;;;;5115328;28;20457;-79
2021/08/22 06:03:55;;;;;;;3.33;2.30;;;19.80;99.90;;;;;;5115036;28;20561;-79
2021/08/22 06:06:22;;;;;;;5.50;2.57;;;20.00;99.90;;;;;;5115270;28;20540;-79
2021/08/22 06:08:49;;;;;;;2.50;2.30;;;20.10;99.90;;;;;;5115250;28;20528;-79
2021/08/22 06:11:16;;;;;;;2.37;1.93;;;20.10;99.90;;;;;;5115232;28;20541;-79
2021/08/22 06:13:42;;;;;;;2.57;2.37;;;20.20;99.90;;;;;;5114989;28;20533;-79
2021/08/22 06:16:09;;;;;;;2.03;1.93;;;20.30;99.90;;;;;;5131126;27;20874;-79
2021/08/22 06:18:36;;;;;;;3.43;2.00;;;20.30;99.90;;;;;;5135375;27;20445;-79
2021/08/22 06:21:02;;;;;;;2.33;2.10;;;20.30;99.90;;;;;;5135628;27;20535;-79
2021/08/22 06:23:28;;;;;;;2.33;2.13;;;20.40;99.90;;;;;;5135535;27;20913;-79
2021/08/22 06:25:56;;;;;;;2.20;1.87;;;20.30;99.90;;;;;;5135318;27;20539;-79
2021/08/22 06:28:23;;;;;;;2.33;2.23;;;20.40;99.90;;;;;;5135433;27;20528;-79
2021/08/22 06:30:49;;;;;;;2.33;2.13;;;20.60;99.90;;;;;;5135163;27;20528;-79
2021/08/22 06:33:16;;;;;;;2.90;1.80;;;20.80;99.90;;;;;;5135202;27;21081;-79
2021/08/22 06:35:42;;;;;;;2.00;1.90;;;21.10;99.90;;;;;;5135164;27;20536;-79
2021/08/22 06:38:09;;;;;;;4.80;4.33;;;21.20;99.90;;;;;;5135260;27;20544;-79
2021/08/22 06:40:36;;;;;;;4.00;3.70;;;21.20;99.90;;;;;;5135020;27;20887;-79
2021/08/22 06:43:04;;;;;;;2.10;2.00;;;21.30;99.90;;;;;;5134987;27;20622;-79
2021/08/22 06:45:30;;;;;;;2.70;2.27;;;21.40;99.90;;;;;;5134833;27;20888;-79
2021/08/22 06:47:57;;;;;;;3.90;1.93;;;21.30;99.90;;;;;;5135122;27;20532;-79
2021/08/22 06:50:24;;;;;;;2.23;1.90;;;21.30;99.90;;;;;;5134419;27;20541;-79
2021/08/22 06:52:51;;;;;;;2.10;2.00;;;21.30;99.90;;;;;;5134964;27;20840;-79
2021/08/22 06:55:17;;;;;;;2.20;2.10;;;21.30;99.90;;;;;;5134670;27;20484;-79
2021/08/22 06:57:44;;;;;;;2.07;1.87;;;21.20;99.90;;;;;;5134702;27;20998;-79
2021/08/22 07:00:14;;;;;;;2.07;1.90;;;21.20;99.90;;;;;;5134554;27;20559;-79
2021/08/22 07:02:42;;;;;;;3.30;2.33;;;21.20;99.90;;;;;;5134772;27;20451;-79
2021/08/22 07:05:10;;;;;;;2.50;2.30;;;21.50;99.90;;;;;;5134689;27;20449;-79
2021/08/22 07:07:36;;;;;;;1.97;1.87;;;21.80;99.90;;;;;;5134572;27;20564;-79
2021/08/22 07:10:03;;;;;;;2.10;2.00;;;22.10;99.90;;;;;;5134810;27;20531;-79
2021/08/22 07:12:30;;;;;;;2.30;2.20;;;22.30;99.90;;;;;;5134912;27;20543;-79
2021/08/22 07:14:56;;;;;;;2.20;2.00;;;22.20;99.90;;;;;;5128653;27;20858;-79
2021/08/22 07:17:24;;;;;;;3.20;1.97;;;22.30;99.90;;;;;;5114321;28;20537;-79
2021/08/22 07:19:50;;;;;;;2.70;1.83;;;22.40;99.90;;;;;;5113909;28;20988;-79
2021/08/22 07:22:17;;;;;;;3.43;2.17;;;22.50;99.90;;;;;;5114061;28;20532;-79
2021/08/22 07:24:45;;;;;;;9.23;2.77;;;22.70;99.90;;;;;;5113672;28;20513;-79
2021/08/22 07:27:11;;;;;;;3.27;2.20;;;22.80;99.90;;;;;;5113923;28;20437;-79
2021/08/22 07:29:38;;;;;;;2.13;2.03;;;22.70;99.90;;;;;;5113686;28;20940;-79
2021/08/22 07:32:06;;;;;;;2.23;2.10;;;22.60;99.90;;;;;;5113820;28;20555;-79
2021/08/22 07:34:34;;;;;;;2.83;2.00;;;22.60;99.90;;;;;;5113784;28;20537;-79
2021/08/22 07:37:00;;;;;;;2.13;1.93;;;22.70;99.90;;;;;;5113613;28;20536;-79
2021/08/22 07:39:27;;;;;;;4.60;2.03;;;22.90;99.90;;;;;;5113696;28;20532;-79
2021/08/22 07:41:53;;;;;;;3.50;2.57;;;23.00;99.90;;;;;;5113499;28;20537;-79
2021/08/22 07:44:21;;;;;;;2.63;2.30;;;22.90;99.90;;;;;;5113773;28;20477;-79
2021/08/22 07:46:48;;;;;;;2.53;2.33;;;22.90;99.90;;;;;;5113651;28;20854;-79
2021/08/22 07:49:15;;;;;;;2.10;2.00;;;23.00;99.90;;;;;;5113754;28;20460;-79
2021/08/22 07:51:43;;;;;;;3.03;2.20;;;23.10;99.90;;;;;;5113577;28;20536;-78
2021/08/22 07:54:09;;;;;;;2.30;2.10;;;23.10;99.90;;;;;;5113601;28;20544;-79
2021/08/22 07:56:39;;;;;;;3.53;3.20;;;23.20;99.90;;;;;;5113216;28;20450;-79
2021/08/22 07:59:06;;;;;;;3.93;3.10;;;23.20;99.90;;;;;;5113632;28;20540;-79
2021/08/22 08:01:32;;;;;;;3.20;2.60;;;23.20;99.90;;;;;;5113734;28;20565;-79
2021/08/22 08:03:59;;;;;;;3.90;2.80;;;23.30;99.90;;;;;;5118134;28;20572;-79
2021/08/22 08:06:25;;;;;;;2.93;2.67;;;23.40;99.90;;;;;;5117382;28;20484;-79
2021/08/22 08:08:53;;;;;;;3.50;3.20;;;23.40;99.90;;;;;;5117467;28;20886;-79
2021/08/22 08:11:20;;;;;;;2.70;2.30;;;23.60;99.90;;;;;;5117697;28;20477;-78
2021/08/22 08:13:46;;;;;;;2.73;2.53;;;23.80;99.90;;;;;;5117727;28;20479;-79
2021/08/22 08:16:13;;;;;;;2.53;2.37;;;24.00;99.90;;;;;;5134020;27;20880;-79
2021/08/22 08:18:39;;;;;;;2.83;2.50;;;24.10;99.90;;;;;;5138250;27;20491;-79
2021/08/22 08:21:06;;;;;;;2.80;2.40;;;24.30;99.90;;;;;;5137888;27;20947;-79
2021/08/22 08:23:32;;;;;;;2.83;2.63;;;24.50;99.90;;;;;;5137888;27;20556;-79
2021/08/22 08:26:00;;;;;;;3.03;2.67;;;24.70;99.90;;;;;;5138100;27;20544;-79
2021/08/22 08:28:28;;;;;;;3.20;2.40;;;24.70;99.90;;;;;;5137866;27;20535;-79
2021/08/22 08:30:55;;;;;;;2.40;2.20;;;24.70;99.90;;;;;;5137670;27;20857;-79
2021/08/22 08:33:21;;;;;;;2.90;2.67;;;24.80;99.90;;;;;;5137728;27;20531;-79
2021/08/22 08:35:48;;;;;;;3.50;2.73;;;24.90;99.90;;;;;;5137351;27;20476;-79
2021/08/22 08:38:14;;;;;;;2.70;2.50;;;25.00;99.90;;;;;;5137431;27;20547;-79
2021/08/22 08:40:41;;;;;;;6.17;3.40;;;25.10;99.90;;;;;;5137877;27;20492;-79
2021/08/22 08:43:11;;;;;;;3.13;2.93;;;25.10;99.90;;;;;;5137634;27;20540;-79
2021/08/22 08:45:44;;;;;;;3.13;2.83;;;25.00;99.90;;;;;;5137524;27;20564;-79
2021/08/22 08:48:11;;;;;;;2.67;2.47;;;25.00;99.90;;;;;;5137463;27;20539;-79
2021/08/22 08:50:38;;;;;;;3.33;3.03;;;24.90;99.90;;;;;;5137300;27;20531;-79
2021/08/22 08:53:05;;;;;;;6.03;2.60;;;24.90;99.90;;;;;;5137578;27;20536;-79
2021/08/22 08:55:33;;;;;;;5.30;2.70;;;24.90;99.90;;;;;;5137471;27;20445;-79
2021/08/22 08:57:59;;;;;;;3.53;3.33;;;24.90;99.90;;;;;;5137650;27;20476;-79
2021/08/22 09:00:27;;;;;;;5.90;3.03;;;24.90;99.90;;;;;;5137357;27;20544;-79
2021/08/22 09:02:56;;;;;;;2.90;2.70;;;24.90;99.90;;;;;;5136988;27;20540;-79
2021/08/22 09:05:55;;;;;;;4.27;2.77;;;24.90;99.90;;;;;;5137515;27;20483;-79
2021/08/22 09:09:10;;;;;;;3.00;2.80;;;25.00;99.90;;;;;;5137222;27;20531;-79
2021/08/22 09:12:10;;;;;;;2.50;2.40;;;25.10;99.90;;;;;;5136904;27;20530;-79
2021/08/22 09:15:14;;;;;;;3.93;3.43;;;25.40;99.90;;;;;;5133686;27;20550;-79
2021/08/22 09:18:18;;;;;;;2.70;2.50;;;25.50;99.90;;;;;;5116275;28;20449;-79
2021/08/22 09:21:35;;;;;;;2.70;2.50;;;25.60;99.90;;;;;;5079131;28;20441;-79
2021/08/22 09:24:39;;;;;;;2.70;2.50;;;25.80;99.90;;;;;;5116125;28;21066;-79
2021/08/22 09:27:51;;;;;;;2.57;2.37;;;25.80;99.90;;;;;;5116402;28;20524;-79
2021/08/22 09:30:55;;;;;;;2.73;2.60;;;25.90;99.90;;;;;;5116037;28;20477;-79
2021/08/22 09:33:59;;;;;;;3.77;3.50;;;26.10;99.90;;;;;;5116217;28;20964;-79
2021/08/22 09:37:02;;;;;;;2.80;2.60;;;26.20;99.90;;;;;;5115911;28;20472;-79
2021/08/22 09:40:02;;;;;;;2.67;2.57;;;26.10;99.90;;;;;;5116223;28;20457;-79
2021/08/22 09:46:22;;;;;;;3.50;2.77;;;26.20;99.90;;;;;;5131606;27;20506;-80
2021/08/22 09:49:29;;;;;;;3.57;3.27;;;26.00;99.90;;;;;;5111196;28;20541;-80
2021/08/22 09:52:26;;;;;;;6.83;2.80;;;26.00;99.90;;;;;;5109638;28;20807;-80
2021/08/22 09:55:41;;;;;;;3.20;3.00;;;25.70;99.90;;;;;;5110629;28;20536;-80
2021/08/22 09:58:36;;;;;;;3.07;2.87;;;25.60;99.90;;;;;;5110628;28;20532;-80
2021/08/22 10:01:35;;;;;;;6.17;5.67;;;25.50;99.90;;;;;;5110791;28;20731;-80
2021/08/22 10:04:27;;;;;;;4.47;4.00;;;25.50;99.90;;;;;;5110838;28;20513;-80
2021/08/22 10:07:20;;;;;;;3.83;3.47;;;25.70;99.90;;;;;;5110659;28;20897;-80
2021/08/22 10:09:53;;;;;;;5.90;5.40;;;25.80;99.90;;;;;;5084431;28;20442;-80
2021/08/22 10:12:20;;;;;;;4.03;3.57;;;25.90;99.90;;;;;;5110395;28;20537;-80
2021/08/22 10:14:46;;;;;;;3.40;3.20;;;25.80;99.90;;;;;;5110680;28;20528;-80
2021/08/22 10:17:18;;;;;;;5.13;3.03;;;25.70;99.90;;;;;;5110334;28;20536;-80
2021/08/22 10:19:47;;;;;;;3.43;3.13;;;25.60;99.90;;;;;;5110307;28;20540;-80
2021/08/22 10:22:16;;;;;;;3.07;2.87;;;25.50;99.90;;;;;;5110051;28;20816;-80
2021/08/22 10:24:48;;;;;;;3.40;3.20;;;25.60;99.90;;;;;;5110026;28;21089;-79
2021/08/22 10:27:46;;;;;;;3.47;3.27;;;25.60;99.90;;;;;;5110364;28;20478;-80
2021/08/22 10:30:15;;;;;;;3.40;3.20;;;25.70;99.90;;;;;;5109976;28;20445;-80
2021/08/22 10:33:13;;;;;;;4.00;3.70;;;25.80;99.90;;;;;;5110049;28;20528;-80
2021/08/22 10:35:41;;;;;;;3.57;3.37;;;25.90;99.90;;;;;;5109896;28;20510;-80
2021/08/22 10:38:21;;;;;;;3.50;3.20;;;25.90;99.90;;;;;;5110004;28;20536;-80
2021/08/22 10:40:50;;;;;;;3.60;3.30;;;25.80;99.90;;;;;;5109833;28;20495;-80
2021/08/22 10:43:38;;;;;;;3.67;3.37;;;25.70;99.90;;;;;;5110006;28;20528;-80
2021/08/22 10:46:05;;;;;;;3.43;3.13;;;25.60;99.90;;;;;;5110127;28;20867;-80
2021/08/22 10:48:51;;;;;;;3.07;2.87;;;25.50;99.90;;;;;;5109900;28;20940;-80
2021/08/22 10:51:19;;;;;;;3.47;3.27;;;25.40;99.90;;;;;;5109889;28;20533;-80
2021/08/22 10:53:50;;;;;;;4.40;3.40;;;25.40;99.90;;;;;;5109704;28;20442;-80
2021/08/22 10:56:40;;;;;;;3.40;3.20;;;25.20;99.90;;;;;;5101483;28;20501;-80
2021/08/22 10:59:11;;;;;;;3.63;3.13;;;25.00;99.90;;;;;;5095984;28;20549;-80
2021/08/22 11:01:42;;;;;;;3.73;3.43;;;24.90;99.90;;;;;;5096079;28;20507;-80
2021/08/22 11:04:10;;;;;;;4.20;3.90;;;24.80;99.90;;;;;;5095706;28;20502;-80
2021/08/22 11:06:38;;;;;;;4.90;4.40;;;24.70;99.90;;;;;;5095889;28;20489;-80
2021/08/22 11:09:05;;;;;;;7.70;7.10;;;24.60;99.90;;;;;;5095801;28;20481;-80
2021/08/22 11:11:32;;;;;;;5.80;5.40;;;24.50;99.90;;;;;;5095815;28;20813;-80
2021/08/22 11:14:01;;;;;;;7.60;4.27;;;24.10;99.90;;;;;;5095517;28;20572;-80
2021/08/22 11:16:44;;;;;;;4.33;3.90;;;23.70;99.90;;;;;;5095534;28;20470;-80
2021/08/22 11:19:10;;;;;;;7.00;4.67;;;23.30;99.90;;;;;;5095707;28;20447;-80
2021/08/22 11:21:37;;;;;;;6.90;5.70;;;22.90;99.90;;;;;;5095680;28;20534;-79
2021/08/22 11:24:03;;;;;;;6.50;5.40;;;22.50;99.90;;;;;;5095828;28;20478;-80
2021/08/22 11:26:31;;;;;;;9.33;6.57;;;22.00;99.90;;;;;;5095558;28;20481;-80
2021/08/22 11:29:00;;;;;;;6.83;6.00;;;21.70;99.90;;;;;;5095330;28;20542;-79
2021/08/22 11:31:30;;;;;;;13.60;12.10;;;21.30;99.90;;;;;;5095440;28;20868;-79
2021/08/22 11:33:58;;;;;;;18.80;9.40;;;21.00;99.90;;;;;;5095398;28;20546;-79
2021/08/22 11:36:26;;;;;;;8.83;8.03;;;20.60;99.90;;;;;;5095317;28;20537;-78
2021/08/22 11:39:07;;;;;;;11.70;10.50;;;20.40;99.90;;;;;;5095144;28;20542;-78
2021/08/22 11:41:34;;;;;;;8.37;6.90;;;20.30;99.90;;;;;;5095069;28;20503;-78
2021/08/22 11:44:02;;;;;;;10.13;7.30;;;20.20;99.90;;;;;;5094903;28;20919;-78
2021/08/22 11:46:29;;;;;;;7.13;6.60;;;19.90;99.90;;;;;;5095089;28;20447;-79
2021/08/22 11:48:57;;;;;;;8.40;7.70;;;19.80;99.90;;;;;;5094908;28;20537;-79
2021/08/22 11:51:24;;;;;;;8.53;7.60;;;19.70;99.90;;;;;;5095017;28;20546;-78
2021/08/22 11:53:50;;;;;;;11.67;8.00;;;19.60;99.90;;;;;;5094836;28;21004;-78
2021/08/22 11:56:21;;;;;;;7.97;6.97;;;19.60;99.90;;;;;;5095066;28;20454;-79
2021/08/22 11:58:48;;;;;;;10.97;9.97;;;19.50;99.90;;;;;;5095059;28;20454;-79
2021/08/22 12:01:18;;;;;;;10.77;9.63;;;19.50;99.90;;;;;;5094874;28;20549;-79
2021/08/22 12:03:57;;;;;;;11.00;9.93;;;19.60;99.90;;;;;;5094710;28;20550;-79
2021/08/22 12:06:24;;;;;;;13.60;11.80;;;19.80;99.90;;;;;;5095132;28;20585;-79
2021/08/22 12:08:50;;;;;;;13.43;12.17;;;19.90;99.90;;;;;;5093919;28;20533;-79
2021/08/22 12:11:21;;;;;;;10.77;9.83;;;20.00;99.90;;;;;;5094925;28;20882;-79
2021/08/22 12:13:48;;;;;;;10.23;9.40;;;20.10;99.90;;;;;;5094524;28;20494;-79
2021/08/22 12:16:28;;;;;;;10.00;9.13;;;20.20;99.90;;;;;;5094502;28;20537;-79
2021/08/22 12:18:55;;;;;;;9.40;8.53;;;20.30;99.90;;;;;;5094415;28;20541;-79
2021/08/22 12:21:23;;;;;;;10.03;9.07;;;20.30;99.90;;;;;;5094147;28;20929;-79
2021/08/22 12:23:52;;;;;;;10.47;9.43;;;20.40;99.90;;;;;;5094693;28;20504;-79
2021/08/22 12:26:24;;;;;;;9.40;8.60;;;20.40;99.90;;;;;;5094533;28;20521;-79
2021/08/22 12:28:52;;;;;;;9.77;8.83;;;20.20;99.90;;;;;;5094268;28;20869;-79
2021/08/22 12:31:19;;;;;;;10.90;10.00;;;20.00;99.90;;;;;;5094225;28;20450;-79
2021/08/22 12:33:55;;;;;;;10.37;9.27;;;19.90;99.90;;;;;;5093854;28;20862;-79
2021/08/22 12:36:32;;;;;;;9.37;8.47;;;19.80;99.90;;;;;;5094280;28;20446;-80
2021/08/22 12:39:00;;;;;;;9.87;9.00;;;19.80;99.90;;;;;;5094096;28;20450;-79
2021/08/22 12:41:33;;;;;;;9.00;8.30;;;19.70;99.90;;;;;;5093895;28;20478;-80
2021/08/22 12:44:03;;;;;;;9.10;8.20;;;19.70;99.90;;;;;;5093672;28;21034;-79
2021/08/22 12:46:32;;;;;;;9.47;8.67;;;19.70;99.90;;;;;;5093931;28;20572;-79
2021/08/22 12:49:00;;;;;;;9.07;8.10;;;19.70;99.90;;;;;;5093927;28;20485;-80
2021/08/22 12:51:27;;;;;;;9.60;8.70;;;19.70;99.90;;;;;;5093699;28;20508;-80
2021/08/22 12:53:54;;;;;;;10.60;9.70;;;19.60;99.90;;;;;;5093731;28;20936;-80
2021/08/22 12:56:22;;;;;;;8.93;8.10;;;19.80;99.90;;;;;;5093684;28;20963;-80
2021/08/22 12:58:49;;;;;;;10.30;9.43;;;19.80;99.90;;;;;;5094000;28;20450;-80
2021/08/22 13:01:16;;;;;;;10.30;9.37;;;19.90;99.90;;;;;;5093739;28;20453;-80
2021/08/22 13:03:42;;;;;;;8.93;8.20;;;20.00;99.90;;;;;;5093429;28;20518;-80
2021/08/22 13:06:10;;;;;;;8.50;7.70;;;20.00;99.90;;;;;;5093688;28;20904;-80